Time;durP1;ratioP1;P1;durP2;ratioP2;P2;SDS_P1;SDS_P2;PMS_P1;PMS_P2;Temp;Humidity;BMP_temperature;BMP_pressure;BME280_temperature;BME280_humidity;BME280_pressure;Samples;Min_cycle;Max_cycle;Signal;HPM_P1;HPM_P2
2023/11/05 00:02:07;;;;;;;7.10;3.72;;;8.20;99.90;;;;;;5027659;28;20041;-74
2023/11/05 00:04:34;;;;;;;3.83;3.47;;;8.20;99.90;;;;;;5021162;28;20140;-73
2023/11/05 00:07:01;;;;;;;3.80;3.35;;;8.30;99.90;;;;;;5025328;28;20046;-74
2023/11/05 00:09:28;;;;;;;3.78;3.45;;;8.30;99.90;;;;;;5027891;28;20037;-73
2023/11/05 00:11:55;;;;;;;5.07;3.60;;;8.30;99.90;;;;;;5031435;28;20136;-74
2023/11/05 00:14:21;;;;;;;4.07;3.78;;;8.30;99.90;;;;;;5028462;28;20049;-74
2023/11/05 00:16:48;;;;;;;4.10;3.70;;;8.20;99.90;;;;;;5027186;28;20123;-75
2023/11/05 00:19:15;;;;;;;5.55;4.22;;;8.20;99.90;;;;;;5034805;28;20090;-74
2023/11/05 00:21:43;;;;;;;6.22;4.13;;;8.20;99.90;;;;;;5025166;28;20037;-74
2023/11/05 00:24:10;;;;;;;7.68;4.30;;;8.20;99.90;;;;;;5013844;28;20449;-74
2023/11/05 00:26:37;;;;;;;8.40;4.90;;;8.20;99.90;;;;;;5020217;28;20041;-73
2023/11/05 00:29:04;;;;;;;4.35;4.05;;;8.20;99.90;;;;;;5031686;28;20049;-73
2023/11/05 00:31:31;;;;;;;7.95;4.47;;;8.20;99.90;;;;;;5011280;28;20041;-73
2023/11/05 00:33:58;;;;;;;5.00;4.07;;;8.20;99.90;;;;;;5029446;28;20905;-73
2023/11/05 00:36:25;;;;;;;4.75;4.38;;;8.20;99.90;;;;;;5025755;28;20044;-74
2023/11/05 00:38:55;;;;;;;4.22;3.92;;;8.20;99.90;;;;;;5028818;28;20685;-75
2023/11/05 00:41:22;;;;;;;5.13;4.28;;;8.20;99.90;;;;;;5025416;28;20044;-74
2023/11/05 00:43:49;;;;;;;5.45;4.95;;;8.20;99.90;;;;;;5012307;28;20040;-73
2023/11/05 00:46:17;;;;;;;4.70;4.30;;;8.30;99.90;;;;;;5027924;28;20443;-72
2023/11/05 00:48:44;;;;;;;7.80;4.55;;;8.30;99.90;;;;;;5027618;28;20490;-74
2023/11/05 00:51:11;;;;;;;8.80;4.95;;;8.30;99.90;;;;;;5030750;28;20080;-74
2023/11/05 00:53:37;;;;;;;5.00;4.60;;;8.40;99.90;;;;;;5025499;28;20163;-73
2023/11/05 00:56:05;;;;;;;8.98;4.70;;;8.40;99.90;;;;;;5014205;28;20147;-74
2023/11/05 00:58:32;;;;;;;7.07;4.93;;;8.50;99.90;;;;;;5029831;28;20041;-73
2023/11/05 01:00:59;;;;;;;6.20;4.78;;;8.50;99.90;;;;;;5029311;28;20052;-75
2023/11/05 01:03:25;;;;;;;5.03;4.60;;;8.60;99.90;;;;;;5028778;28;20128;-75
2023/11/05 01:05:52;;;;;;;13.52;6.55;;;8.60;99.90;;;;;;5025198;28;21069;-75
2023/11/05 01:08:19;;;;;;;6.75;5.07;;;8.60;99.90;;;;;;5031661;28;20049;-75
2023/11/05 01:10:47;;;;;;;5.97;5.22;;;8.70;99.90;;;;;;5023550;28;20300;-75
2023/11/05 01:13:13;;;;;;;7.32;5.38;;;8.80;99.90;;;;;;5032131;28;20057;-74
2023/11/05 01:15:40;;;;;;;7.43;5.70;;;8.80;99.90;;;;;;5025144;28;20743;-75
2023/11/05 01:18:07;;;;;;;5.20;4.80;;;8.80;99.90;;;;;;5031645;28;20580;-75
2023/11/05 01:20:34;;;;;;;5.53;5.03;;;8.80;99.90;;;;;;5026334;28;20123;-75
2023/11/05 01:23:01;;;;;;;12.60;6.22;;;8.90;99.90;;;;;;5015033;28;20695;-74
2023/11/05 01:25:28;;;;;;;7.95;5.40;;;8.90;99.90;;;;;;5029285;28;20059;-75
2023/11/05 01:27:54;;;;;;;9.95;5.53;;;8.90;99.90;;;;;;5027526;28;20064;-74
2023/11/05 01:30:21;;;;;;;10.50;5.47;;;8.90;99.90;;;;;;5032846;28;20033;-74
2023/11/05 01:32:48;;;;;;;9.85;6.22;;;8.90;99.90;;;;;;5027954;28;20076;-74
2023/11/05 01:35:15;;;;;;;9.68;5.65;;;8.90;99.90;;;;;;5029469;28;20136;-75
2023/11/05 01:37:42;;;;;;;8.65;5.70;;;8.90;99.90;;;;;;5025106;28;20061;-73
2023/11/05 01:40:10;;;;;;;9.23;5.43;;;8.90;99.90;;;;;;5027015;28;20065;-74
2023/11/05 01:42:37;;;;;;;5.72;5.32;;;8.90;99.90;;;;;;5025514;28;20049;-75
2023/11/05 01:45:04;;;;;;;9.90;4.80;;;8.90;99.90;;;;;;5045504;28;20046;-75
2023/11/05 01:47:32;;;;;;;9.23;5.47;;;8.90;99.90;;;;;;5024271;28;20067;-75
2023/11/05 01:49:59;;;;;;;7.72;5.63;;;8.90;99.90;;;;;;5005858;28;20091;-75
2023/11/05 01:52:27;;;;;;;6.07;5.47;;;8.90;99.90;;;;;;5027135;28;20049;-74
2023/11/05 01:54:54;;;;;;;10.23;6.10;;;9.00;99.90;;;;;;5023222;28;20045;-74
2023/11/05 01:57:22;;;;;;;8.90;5.75;;;9.00;99.90;;;;;;5023453;28;20530;-75
2023/11/05 01:59:48;;;;;;;17.08;7.45;;;9.00;99.90;;;;;;5021728;28;20071;-74
2023/11/05 02:02:17;;;;;;;6.60;5.60;;;8.90;99.90;;;;;;5024406;28;20120;-73
2023/11/05 02:04:45;;;;;;;8.27;6.65;;;8.90;99.90;;;;;;5021913;28;20602;-73
2023/11/05 02:07:12;;;;;;;6.60;5.53;;;8.90;99.90;;;;;;5024691;28;20784;-73
2023/11/05 02:09:38;;;;;;;7.88;5.00;;;8.90;99.90;;;;;;5026117;28;20033;-73
2023/11/05 02:12:06;;;;;;;8.73;5.13;;;8.80;99.90;;;;;;5009437;28;20120;-73
2023/11/05 02:14:32;;;;;;;5.63;5.00;;;8.80;99.90;;;;;;5026231;28;20039;-72
2023/11/05 02:16:59;;;;;;;9.90;5.35;;;8.90;99.90;;;;;;5022194;28;20052;-73
2023/11/05 02:19:26;;;;;;;6.18;4.82;;;8.90;99.90;;;;;;5026584;28;20048;-73
2023/11/05 02:22:01;;;;;;;5.82;5.13;;;8.90;99.90;;;;;;5019745;28;20045;-73
2023/11/05 02:24:28;;;;;;;6.28;5.60;;;8.90;99.90;;;;;;5029675;28;20056;-73
2023/11/05 02:26:59;;;;;;;5.30;4.72;;;8.90;99.90;;;;;;5038999;28;20500;-73
2023/11/05 02:29:26;;;;;;;10.07;5.68;;;8.90;99.90;;;;;;5026417;28;20132;-72
2023/11/05 02:31:53;;;;;;;7.88;5.15;;;8.90;99.90;;;;;;5021669;28;20037;-72
2023/11/05 02:34:20;;;;;;;6.88;5.05;;;8.90;99.90;;;;;;5027731;28;20826;-73
2023/11/05 02:36:48;;;;;;;12.57;5.45;;;8.90;99.90;;;;;;5023368;28;20083;-73
2023/11/05 02:39:15;;;;;;;7.63;5.28;;;8.90;99.90;;;;;;5028669;28;20067;-74
2023/11/05 02:41:42;;;;;;;6.63;5.30;;;9.00;99.90;;;;;;5021513;28;20099;-74
2023/11/05 02:44:08;;;;;;;10.00;5.90;;;9.00;99.90;;;;;;5010946;28;20045;-74
2023/11/05 02:46:35;;;;;;;9.77;5.75;;;9.00;99.90;;;;;;5023542;28;20602;-73
2023/11/05 02:49:02;;;;;;;5.97;5.38;;;9.00;99.90;;;;;;5028956;28;20061;-72
2023/11/05 02:51:29;;;;;;;12.30;5.97;;;9.00;99.90;;;;;;5010511;28;20041;-74
2023/11/05 02:53:57;;;;;;;10.63;5.65;;;9.00;99.90;;;;;;5024578;28;20037;-73
2023/11/05 02:56:23;;;;;;;12.73;6.13;;;9.10;99.90;;;;;;5025889;28;20048;-74
2023/11/05 02:58:50;;;;;;;9.15;6.35;;;9.10;99.90;;;;;;5020878;28;20052;-74
2023/11/05 03:01:24;;;;;;;9.50;6.88;;;9.10;99.90;;;;;;5024991;28;20037;-72
2023/11/05 03:03:51;;;;;;;11.43;5.90;;;9.20;99.90;;;;;;5006250;28;20049;-73
2023/11/05 03:06:19;;;;;;;10.30;6.65;;;9.20;99.90;;;;;;5029582;28;20033;-74
2023/11/05 03:08:47;;;;;;;6.85;6.25;;;9.20;99.90;;;;;;5025603;28;20128;-73
2023/11/05 03:11:14;;;;;;;14.18;7.32;;;9.20;99.90;;;;;;5026325;28;20076;-73
2023/11/05 03:13:41;;;;;;;9.77;7.32;;;9.30;99.90;;;;;;5024885;28;20060;-73
2023/11/05 03:16:11;;;;;;;11.23;6.40;;;9.20;99.90;;;;;;5026331;28;20084;-73
2023/11/05 03:18:41;;;;;;;7.20;6.68;;;9.30;99.90;;;;;;5012721;28;20057;-73
2023/11/05 03:21:14;;;;;;;7.15;6.45;;;9.30;99.90;;;;;;5024968;28;20041;-73
2023/11/05 03:23:41;;;;;;;6.18;5.55;;;9.20;99.90;;;;;;5026166;28;20061;-72
2023/11/05 03:26:08;;;;;;;11.95;6.13;;;9.20;99.90;;;;;;5023705;28;20049;-73
2023/11/05 03:28:35;;;;;;;7.20;5.40;;;9.20;99.90;;;;;;5025088;28;20690;-72
2023/11/05 03:31:02;;;;;;;10.43;5.18;;;9.20;99.90;;;;;;5022397;28;20130;-73
2023/11/05 03:33:29;;;;;;;5.85;4.50;;;9.20;99.90;;;;;;5024299;28;20037;-72
2023/11/05 03:35:55;;;;;;;9.60;4.30;;;9.20;99.90;;;;;;5018875;28;20669;-73
2023/11/05 03:38:22;;;;;;;5.10;4.20;;;9.10;99.90;;;;;;5011053;28;20052;-72
2023/11/05 03:40:49;;;;;;;12.13;4.68;;;9.10;99.90;;;;;;5019608;28;20049;-73
2023/11/05 03:43:16;;;;;;;5.93;4.10;;;9.10;99.90;;;;;;5029127;28;20607;-73
2023/11/05 03:45:42;;;;;;;8.98;4.32;;;9.10;99.90;;;;;;5020604;28;20051;-71
2023/11/05 03:48:10;;;;;;;6.45;3.40;;;9.10;99.90;;;;;;5026100;28;20491;-73
2023/11/05 03:50:37;;;;;;;7.15;3.85;;;9.10;99.90;;;;;;5022362;28;20657;-72
2023/11/05 03:53:03;;;;;;;7.57;3.78;;;9.10;99.90;;;;;;5028362;28;20061;-72
2023/11/05 03:55:30;;;;;;;12.05;3.80;;;9.10;99.90;;;;;;5051657;28;20106;-72
2023/11/05 03:57:57;;;;;;;8.95;3.40;;;9.10;99.90;;;;;;5052662;28;20240;-72
2023/11/05 04:00:24;;;;;;;3.80;3.47;;;9.00;99.90;;;;;;5033359;28;20041;-74
2023/11/05 04:02:51;;;;;;;5.13;3.30;;;9.00;99.90;;;;;;5023421;28;20040;-72
2023/11/05 04:05:18;;;;;;;4.63;2.88;;;9.00;99.90;;;;;;5026063;28;20114;-74
2023/11/05 04:07:45;;;;;;;9.10;3.25;;;9.00;99.90;;;;;;5019639;28;20547;-72
2023/11/05 04:10:14;;;;;;;8.20;3.30;;;9.00;99.90;;;;;;5025813;28;20041;-74
2023/11/05 04:12:40;;;;;;;6.53;3.20;;;9.00;99.90;;;;;;5024021;28;20045;-74
2023/11/05 04:15:08;;;;;;;4.60;3.22;;;9.00;99.90;;;;;;5020724;28;20045;-74
2023/11/05 04:17:35;;;;;;;4.50;2.92;;;9.00;99.90;;;;;;5021141;28;20087;-74
2023/11/05 04:20:04;;;;;;;8.40;3.40;;;9.00;99.90;;;;;;5021936;28;20045;-75
2023/11/05 04:22:31;;;;;;;7.93;3.25;;;9.00;99.90;;;;;;5011332;28;20489;-75
2023/11/05 04:24:59;;;;;;;4.63;2.63;;;9.00;99.90;;;;;;5023786;28;20683;-73
2023/11/05 04:27:25;;;;;;;5.90;2.90;;;9.00;99.90;;;;;;5025962;28;20045;-73
2023/11/05 04:29:52;;;;;;;4.70;2.80;;;9.00;99.90;;;;;;5018670;28;20040;-73
2023/11/05 04:32:19;;;;;;;4.43;2.70;;;9.00;99.90;;;;;;5028341;28;20305;-73
2023/11/05 04:34:46;;;;;;;2.78;2.58;;;9.00;99.90;;;;;;5003054;28;20056;-73
2023/11/05 04:37:13;;;;;;;5.25;2.72;;;9.00;99.90;;;;;;5024522;28;20053;-73
2023/11/05 04:39:43;;;;;;;3.60;2.38;;;9.00;99.90;;;;;;5008181;28;20056;-72
2023/11/05 04:42:11;;;;;;;5.78;2.53;;;9.00;99.90;;;;;;5023050;28;20049;-74
2023/11/05 04:44:38;;;;;;;4.68;2.55;;;9.00;99.90;;;;;;5030439;28;20589;-73
2023/11/05 04:47:05;;;;;;;4.07;2.33;;;9.00;99.90;;;;;;5010453;28;20258;-73
2023/11/05 04:49:32;;;;;;;3.83;2.55;;;9.00;99.90;;;;;;5027438;28;20044;-73
2023/11/05 04:51:59;;;;;;;3.28;2.17;;;9.00;99.90;;;;;;5024442;28;20044;-74
2023/11/05 04:54:26;;;;;;;10.35;2.42;;;9.00;99.90;;;;;;5025897;28;20064;-73
2023/11/05 04:56:53;;;;;;;2.28;2.10;;;9.00;99.90;;;;;;5024728;28;20045;-72
2023/11/05 04:59:20;;;;;;;5.15;2.00;;;9.00;99.90;;;;;;5027378;28;20037;-73
2023/11/05 05:01:47;;;;;;;2.50;2.30;;;9.00;99.90;;;;;;5022261;28;20171;-74
2023/11/05 05:04:13;;;;;;;2.88;2.35;;;9.00;99.90;;;;;;5025931;28;20099;-74
2023/11/05 05:06:41;;;;;;;3.15;2.38;;;9.00;99.90;;;;;;5023729;28;20045;-74
2023/11/05 05:09:09;;;;;;;2.38;2.17;;;9.00;99.90;;;;;;5021276;28;20037;-73
2023/11/05 05:11:36;;;;;;;4.53;2.97;;;9.00;99.90;;;;;;5026877;28;20048;-73
2023/11/05 05:14:02;;;;;;;4.72;2.42;;;9.00;99.90;;;;;;5027497;28;20050;-73
2023/11/05 05:16:29;;;;;;;5.43;2.60;;;9.10;99.90;;;;;;5025990;28;20138;-73
2023/11/05 05:18:56;;;;;;;3.58;3.00;;;9.10;99.90;;;;;;5020058;28;20091;-73
2023/11/05 05:21:23;;;;;;;2.45;2.08;;;9.00;99.90;;;;;;5023498;28;20111;-72
2023/11/05 05:23:50;;;;;;;2.33;2.13;;;9.00;99.90;;;;;;5017184;28;20726;-73
2023/11/05 05:26:17;;;;;;;4.50;2.05;;;9.10;99.90;;;;;;5017520;28;20041;-73
2023/11/05 05:28:47;;;;;;;3.20;2.15;;;9.10;99.90;;;;;;5020231;28;20049;-73
2023/11/05 05:31:15;;;;;;;2.70;2.50;;;9.10;99.90;;;;;;5020768;28;20075;-73
2023/11/05 05:33:42;;;;;;;2.17;2.05;;;9.10;99.90;;;;;;5026672;28;20036;-74
2023/11/05 05:36:10;;;;;;;3.50;2.20;;;9.10;99.90;;;;;;5024136;28;20045;-73
2023/11/05 05:38:37;;;;;;;4.95;2.50;;;9.10;99.90;;;;;;5022971;28;20517;-74
2023/11/05 05:41:04;;;;;;;3.47;1.98;;;9.10;99.90;;;;;;5017653;28;21815;-77
2023/11/05 05:43:31;;;;;;;2.00;1.90;;;9.10;99.90;;;;;;5023888;28;20142;-76
2023/11/05 05:45:58;;;;;;;2.35;1.80;;;9.10;99.90;;;;;;5021347;28;20132;-74
2023/11/05 05:48:25;;;;;;;2.00;1.90;;;9.00;99.90;;;;;;5023634;28;20037;-73
2023/11/05 05:50:52;;;;;;;2.00;1.75;;;9.00;99.90;;;;;;5021642;28;20052;-73
2023/11/05 05:53:18;;;;;;;2.63;1.65;;;9.10;99.90;;;;;;5019742;28;20068;-74
2023/11/05 05:55:46;;;;;;;2.35;1.80;;;9.10;99.90;;;;;;5004621;28;20539;-73
2023/11/05 05:58:15;;;;;;;2.28;2.00;;;9.10;99.90;;;;;;5019435;28;20730;-74
2023/11/05 06:00:43;;;;;;;3.53;2.17;;;9.10;99.90;;;;;;5019782;28;20044;-74
2023/11/05 06:03:10;;;;;;;3.80;2.35;;;9.10;99.90;;;;;;5001610;28;20132;-73
2023/11/05 06:05:37;;;;;;;4.88;2.25;;;9.00;99.90;;;;;;5023015;28;20041;-73
2023/11/05 06:08:04;;;;;;;4.72;2.13;;;9.10;99.90;;;;;;5015939;28;20117;-73
2023/11/05 06:10:31;;;;;;;3.03;1.85;;;9.00;99.90;;;;;;5023082;28;20069;-73
2023/11/05 06:12:58;;;;;;;3.42;2.00;;;9.10;99.90;;;;;;5020676;28;20055;-74
2023/11/05 06:15:25;;;;;;;2.70;1.80;;;9.10;99.90;;;;;;5021361;28;20044;-73
2023/11/05 06:17:52;;;;;;;3.70;2.42;;;9.00;99.90;;;;;;5020159;28;20068;-72
2023/11/05 06:20:19;;;;;;;7.97;4.65;;;9.00;99.90;;;;;;5037935;28;20253;-73
2023/11/05 06:22:46;;;;;;;4.13;2.58;;;9.10;99.90;;;;;;5006794;28;20037;-73
2023/11/05 06:25:13;;;;;;;2.75;2.03;;;9.10;99.90;;;;;;5019133;28;20053;-73
2023/11/05 06:27:41;;;;;;;1.70;1.60;;;9.10;99.90;;;;;;5024553;28;20041;-71
2023/11/05 06:30:09;;;;;;;1.83;1.70;;;9.00;99.90;;;;;;5016065;28;20089;-73
2023/11/05 06:32:38;;;;;;;2.20;2.10;;;9.00;99.90;;;;;;5021315;28;20049;-73
2023/11/05 06:35:05;;;;;;;2.33;2.13;;;9.00;99.90;;;;;;5022239;28;20091;-74
2023/11/05 06:37:32;;;;;;;3.80;1.70;;;9.00;99.90;;;;;;5006866;28;20119;-74
2023/11/05 06:40:00;;;;;;;3.10;2.90;;;9.00;99.90;;;;;;5013924;28;20052;-74
2023/11/05 06:42:27;;;;;;;2.97;1.70;;;9.10;99.90;;;;;;5024228;28;20057;-74
2023/11/05 06:44:54;;;;;;;4.47;1.90;;;9.10;99.90;;;;;;5006980;28;20072;-74
2023/11/05 06:47:21;;;;;;;6.95;2.50;;;9.10;99.90;;;;;;5024762;28;20106;-74
2023/11/05 06:49:48;;;;;;;1.80;1.67;;;9.00;99.90;;;;;;5023854;28;20041;-75
2023/11/05 06:52:14;;;;;;;3.17;1.88;;;9.10;99.90;;;;;;5016163;28;20265;-74
2023/11/05 06:54:41;;;;;;;2.97;2.33;;;9.10;99.90;;;;;;5016888;28;20050;-74
2023/11/05 06:57:11;;;;;;;3.90;2.55;;;9.10;99.90;;;;;;5001464;28;20049;-75
2023/11/05 06:59:38;;;;;;;3.25;2.47;;;9.10;99.90;;;;;;5019094;28;20569;-75
2023/11/05 07:02:10;;;;;;;4.13;3.38;;;9.10;99.90;;;;;;5018929;28;20099;-74
2023/11/05 07:04:39;;;;;;;4.43;3.47;;;9.20;99.90;;;;;;5010319;28;20639;-74
2023/11/05 07:07:06;;;;;;;4.55;3.72;;;9.20;99.90;;;;;;5016696;28;20693;-75
2023/11/05 07:09:33;;;;;;;3.92;3.70;;;9.10;99.90;;;;;;5019912;28;20606;-73
2023/11/05 07:12:00;;;;;;;4.18;3.20;;;9.10;99.90;;;;;;5017549;28;20037;-74
2023/11/05 07:14:27;;;;;;;4.20;3.80;;;9.10;99.90;;;;;;5022178;28;20052;-73
2023/11/05 07:16:54;;;;;;;4.13;3.83;;;9.10;99.90;;;;;;5021967;28;20036;-75
2023/11/05 07:19:21;;;;;;;4.13;3.83;;;9.20;99.90;;;;;;5017492;28;20664;-75
2023/11/05 07:21:48;;;;;;;3.90;3.60;;;9.20;99.90;;;;;;5024653;28;20124;-74
2023/11/05 07:24:15;;;;;;;4.10;3.78;;;9.20;99.90;;;;;;5017094;28;20059;-75
2023/11/05 07:26:45;;;;;;;4.15;3.78;;;9.20;99.90;;;;;;5020362;28;20052;-73
2023/11/05 07:29:12;;;;;;;4.00;3.70;;;9.20;99.90;;;;;;5038315;28;20115;-74
2023/11/05 07:31:41;;;;;;;4.43;4.03;;;9.20;99.90;;;;;;5018863;28;20044;-75
2023/11/05 07:34:08;;;;;;;3.40;3.03;;;9.20;99.90;;;;;;5017242;28;20501;-74
2023/11/05 07:36:38;;;;;;;5.43;3.80;;;9.20;99.90;;;;;;5023837;28;20429;-74
2023/11/05 07:39:07;;;;;;;3.80;3.42;;;9.20;99.90;;;;;;5008113;28;20045;-75
2023/11/05 07:41:34;;;;;;;4.25;3.83;;;9.30;99.90;;;;;;5023057;28;20041;-74
2023/11/05 07:44:01;;;;;;;4.00;3.80;;;9.30;99.90;;;;;;5003120;28;20030;-73
2023/11/05 07:46:28;;;;;;;4.10;3.75;;;9.30;99.90;;;;;;5025436;28;20041;-74
2023/11/05 07:48:55;;;;;;;5.28;3.92;;;9.30;99.90;;;;;;5005406;28;20133;-72
2023/11/05 07:51:22;;;;;;;4.55;3.33;;;9.20;99.90;;;;;;5023102;28;20616;-73
2023/11/05 07:53:49;;;;;;;5.60;4.13;;;9.30;99.90;;;;;;5017528;28;20041;-74
2023/11/05 07:56:16;;;;;;;4.82;4.18;;;9.30;99.90;;;;;;5014777;28;20061;-73
2023/11/05 07:58:44;;;;;;;3.85;3.50;;;9.30;99.90;;;;;;5021898;28;20052;-73
2023/11/05 08:01:12;;;;;;;8.45;4.28;;;9.30;99.90;;;;;;5014891;28;20053;-73
2023/11/05 08:03:42;;;;;;;3.58;3.38;;;9.30;99.90;;;;;;5032466;28;20056;-72
2023/11/05 08:06:09;;;;;;;4.53;3.90;;;9.30;99.90;;;;;;5044298;28;20037;-71
2023/11/05 08:08:36;;;;;;;6.30;4.13;;;9.30;99.90;;;;;;5025816;28;20033;-74
2023/11/05 08:11:03;;;;;;;4.28;3.92;;;9.30;99.90;;;;;;5024057;28;20461;-71
2023/11/05 08:13:31;;;;;;;3.72;3.42;;;9.30;99.90;;;;;;5018668;28;20128;-72
2023/11/05 08:15:58;;;;;;;5.80;3.25;;;9.30;99.90;;;;;;5021409;28;20060;-73
2023/11/05 08:18:25;;;;;;;4.28;3.30;;;9.30;99.90;;;;;;5023359;28;20046;-74
2023/11/05 08:20:53;;;;;;;4.22;3.92;;;9.30;99.90;;;;;;5025974;28;20068;-73
2023/11/05 08:23:20;;;;;;;3.60;3.40;;;9.30;99.90;;;;;;5016597;28;20042;-75
2023/11/05 08:25:47;;;;;;;11.85;4.65;;;9.30;99.90;;;;;;5016903;28;20041;-73
2023/11/05 08:28:15;;;;;;;4.70;4.07;;;9.30;99.90;;;;;;5013424;28;20037;-75
2023/11/05 08:30:52;;;;;;;5.47;3.83;;;9.30;99.90;;;;;;5025067;28;20212;-74
2023/11/05 08:33:20;;;;;;;4.07;3.65;;;9.30;99.90;;;;;;5020523;28;20099;-73
2023/11/05 08:35:47;;;;;;;4.18;3.80;;;9.30;99.90;;;;;;5022013;28;20033;-72
2023/11/05 08:38:14;;;;;;;4.32;3.90;;;9.30;99.90;;;;;;5006331;28;20060;-73
2023/11/05 08:40:41;;;;;;;5.45;3.55;;;9.30;99.90;;;;;;5028956;28;20128;-73
2023/11/05 08:43:08;;;;;;;4.07;3.42;;;9.20;99.90;;;;;;5007446;28;20095;-74
2023/11/05 08:45:35;;;;;;;3.45;3.15;;;9.20;99.90;;;;;;5013151;28;20063;-71
2023/11/05 08:48:16;;;;;;;3.50;3.30;;;9.20;99.90;;;;;;5021056;28;20045;-72
2023/11/05 08:50:43;;;;;;;3.13;2.92;;;9.30;99.90;;;;;;5021141;28;20037;-71
2023/11/05 08:53:10;;;;;;;5.10;4.60;;;9.30;99.90;;;;;;5004400;28;20072;-71
2023/11/05 08:55:37;;;;;;;5.57;3.70;;;9.30;99.90;;;;;;5021670;28;20060;-73
2023/11/05 08:58:04;;;;;;;6.75;3.45;;;9.40;99.90;;;;;;5042854;28;20037;-73
2023/11/05 09:00:34;;;;;;;3.50;3.20;;;9.40;99.90;;;;;;5023089;28;20514;-72
2023/11/05 09:03:04;;;;;;;4.22;3.65;;;9.40;99.90;;;;;;5025416;28;20080;-72
2023/11/05 09:05:31;;;;;;;4.00;3.75;;;9.40;99.90;;;;;;5024408;28;20511;-73
2023/11/05 09:07:58;;;;;;;5.53;4.28;;;9.50;99.90;;;;;;5029842;28;20103;-72
2023/11/05 09:10:26;;;;;;;3.80;3.50;;;9.60;99.90;;;;;;5021197;28;20048;-73
2023/11/05 09:12:54;;;;;;;5.25;4.18;;;9.60;99.90;;;;;;5023427;28;20049;-72
2023/11/05 09:15:22;;;;;;;6.70;4.03;;;9.60;99.90;;;;;;5020066;28;20053;-73
2023/11/05 09:17:49;;;;;;;10.05;5.40;;;9.70;99.90;;;;;;5041111;28;20099;-74
2023/11/05 09:20:16;;;;;;;3.78;3.58;;;9.70;99.90;;;;;;5017489;28;20075;-73
2023/11/05 09:22:43;;;;;;;4.15;3.95;;;9.70;99.90;;;;;;5025290;28;20667;-72
2023/11/05 09:25:10;;;;;;;4.78;4.40;;;9.80;99.90;;;;;;5021195;28;20048;-72
2023/11/05 09:27:39;;;;;;;4.55;4.20;;;9.80;99.90;;;;;;5019307;28;20064;-73
2023/11/05 09:30:11;;;;;;;5.88;4.63;;;9.90;99.90;;;;;;5018464;28;20538;-74
2023/11/05 09:32:42;;;;;;;4.30;4.00;;;10.00;99.90;;;;;;5018503;28;20127;-74
2023/11/05 09:35:14;;;;;;;4.20;3.97;;;10.00;99.90;;;;;;5016756;28;20040;-73
2023/11/05 09:37:43;;;;;;;4.00;3.70;;;10.00;99.90;;;;;;5007405;28;20155;-74
2023/11/05 09:40:13;;;;;;;4.30;3.97;;;10.00;99.90;;;;;;5019469;28;20157;-74
2023/11/05 09:42:58;;;;;;;7.00;5.20;;;10.00;99.90;;;;;;5043677;28;20067;-74
2023/11/05 09:45:27;;;;;;;4.70;4.40;;;10.00;99.90;;;;;;5005264;28;20455;-73
2023/11/05 09:47:56;;;;;;;4.00;3.80;;;10.10;99.90;;;;;;5027058;28;20041;-77
2023/11/05 09:50:24;;;;;;;6.95;6.25;;;10.10;99.90;;;;;;5017627;28;20098;-73
2023/11/05 09:52:52;;;;;;;5.85;5.20;;;10.20;99.90;;;;;;5027652;28;20124;-71
2023/11/05 09:55:19;;;;;;;3.67;3.47;;;10.20;99.90;;;;;;5024182;28;20515;-72
2023/11/05 09:57:46;;;;;;;4.95;4.65;;;10.30;99.90;;;;;;5025993;28;20045;-71
2023/11/05 10:00:14;;;;;;;4.40;4.10;;;10.30;99.90;;;;;;5019757;28;20068;-71
2023/11/05 10:02:55;;;;;;;4.72;4.32;;;10.40;99.90;;;;;;5022967;28;20394;-73
2023/11/05 10:05:26;;;;;;;4.78;4.47;;;10.50;99.90;;;;;;5018169;28;20060;-71
2023/11/05 10:07:54;;;;;;;4.43;4.03;;;10.60;99.90;;;;;;5045999;28;20044;-72
2023/11/05 10:10:21;;;;;;;3.35;3.15;;;10.70;99.90;;;;;;5017203;28;20029;-73
2023/11/05 10:12:49;;;;;;;3.55;3.25;;;10.70;99.90;;;;;;5026752;28;20912;-73
2023/11/05 10:15:17;;;;;;;4.82;4.53;;;10.70;99.90;;;;;;5017534;28;20110;-74
2023/11/05 10:17:45;;;;;;;4.65;4.32;;;10.70;99.90;;;;;;5023904;28;20676;-73
2023/11/05 10:20:12;;;;;;;4.68;4.38;;;10.70;99.90;;;;;;5020330;28;20056;-74
2023/11/05 10:22:43;;;;;;;5.75;5.45;;;10.70;99.90;;;;;;5022843;28;20053;-71
2023/11/05 10:25:25;;;;;;;6.35;5.85;;;10.70;99.90;;;;;;5025719;28;20041;-73
2023/11/05 10:27:55;;;;;;;5.93;5.60;;;10.70;99.90;;;;;;5022144;28;20754;-72
2023/11/05 10:30:23;;;;;;;6.43;6.22;;;10.60;99.90;;;;;;5002687;28;20048;-73
2023/11/05 10:32:51;;;;;;;10.98;10.15;;;10.60;99.90;;;;;;5027931;28;20067;-72
2023/11/05 10:35:27;;;;;;;7.43;7.07;;;10.70;99.90;;;;;;5021240;28;20040;-72
2023/11/05 10:37:56;;;;;;;7.80;7.50;;;10.70;99.90;;;;;;5027037;28;20053;-73
2023/11/05 10:40:23;;;;;;;7.78;7.47;;;10.60;99.90;;;;;;5016975;28;20037;-71
2023/11/05 10:42:51;;;;;;;7.63;7.22;;;10.50;99.90;;;;;;5021184;28;20401;-74
2023/11/05 10:45:21;;;;;;;7.20;6.82;;;10.50;99.90;;;;;;5021217;28;20091;-70
2023/11/05 10:47:50;;;;;;;8.70;8.02;;;10.50;99.90;;;;;;5021859;28;20052;-74
2023/11/05 10:50:26;;;;;;;7.68;7.28;;;10.50;99.90;;;;;;5021461;28;20047;-72
2023/11/05 10:52:56;;;;;;;7.00;6.70;;;10.50;99.90;;;;;;5022464;28;20526;-71
2023/11/05 10:55:34;;;;;;;6.90;6.22;;;10.50;99.90;;;;;;4999355;28;20048;-70
2023/11/05 10:58:03;;;;;;;7.30;6.72;;;10.50;99.90;;;;;;5026307;28;20060;-71
2023/11/05 11:00:54;;;;;;;6.22;5.43;;;10.50;99.90;;;;;;5020337;28;20055;-74
2023/11/05 11:03:21;;;;;;;8.15;6.40;;;10.40;99.90;;;;;;5023733;28;20037;-72
2023/11/05 11:05:48;;;;;;;5.40;4.90;;;10.40;99.90;;;;;;5025510;28;20075;-73
2023/11/05 11:08:21;;;;;;;7.50;5.95;;;10.40;99.90;;;;;;5023814;28;20126;-72
2023/11/05 11:11:05;;;;;;;9.85;7.07;;;10.40;99.90;;;;;;5020214;28;21037;-72
2023/11/05 11:13:32;;;;;;;6.72;5.55;;;10.40;99.90;;;;;;5020182;28;20053;-71
2023/11/05 11:16:01;;;;;;;8.15;4.80;;;10.50;99.90;;;;;;5024812;28;20049;-72
2023/11/05 11:18:31;;;;;;;5.45;5.05;;;10.60;99.90;;;;;;4997034;28;20041;-72
2023/11/05 11:21:00;;;;;;;5.55;5.15;;;10.60;99.90;;;;;;5022238;28;20126;-73
2023/11/05 11:23:27;;;;;;;6.15;5.55;;;10.80;99.90;;;;;;5006129;28;20046;-71
2023/11/05 11:26:17;;;;;;;4.88;4.47;;;10.80;99.90;;;;;;5012325;28;20565;-74
2023/11/05 11:28:43;;;;;;;5.18;4.82;;;10.90;99.90;;;;;;5023030;28;20571;-71
2023/11/05 11:31:11;;;;;;;5.07;4.47;;;10.90;99.90;;;;;;5022909;28;20064;-73
2023/11/05 11:33:38;;;;;;;6.15;5.60;;;10.90;99.90;;;;;;5007696;28;20166;-72
2023/11/05 11:36:07;;;;;;;7.15;6.50;;;10.90;99.90;;;;;;5026527;28;20296;-71
2023/11/05 11:38:36;;;;;;;7.18;6.55;;;10.90;99.90;;;;;;5020015;28;20171;-72
2023/11/05 11:41:03;;;;;;;6.95;6.53;;;10.80;99.90;;;;;;5023249;28;20041;-72
2023/11/05 11:43:30;;;;;;;8.50;7.72;;;10.80;99.90;;;;;;5018028;28;20041;-73
2023/11/05 11:45:57;;;;;;;7.00;6.60;;;10.70;99.90;;;;;;5025613;28;20068;-74
2023/11/05 11:48:25;;;;;;;7.65;7.22;;;10.50;99.90;;;;;;5008223;28;20083;-72
2023/11/05 11:50:55;;;;;;;7.28;6.68;;;10.50;99.90;;;;;;5021950;28;20045;-73
2023/11/05 11:53:29;;;;;;;8.52;7.75;;;10.50;99.90;;;;;;5016726;28;20041;-72
2023/11/05 11:55:57;;;;;;;6.47;5.97;;;10.60;99.90;;;;;;5026196;28;20038;-72
2023/11/05 11:58:25;;;;;;;7.30;6.72;;;10.80;99.90;;;;;;5021097;28;20045;-72
2023/11/05 12:00:57;;;;;;;8.32;7.55;;;10.80;99.90;;;;;;5022404;28;20134;-72
2023/11/05 12:03:27;;;;;;;8.55;7.90;;;10.80;99.90;;;;;;5021242;28;20075;-73
2023/11/05 12:05:58;;;;;;;8.48;7.97;;;10.80;99.90;;;;;;5030960;28;20037;-72
2023/11/05 12:08:43;;;;;;;8.80;8.00;;;10.80;99.90;;;;;;5047056;28;20102;-71
2023/11/05 12:11:13;;;;;;;8.45;7.85;;;10.80;99.90;;;;;;5060979;28;20136;-71
2023/11/05 12:13:42;;;;;;;10.85;9.93;;;10.80;99.90;;;;;;5042525;28;20353;-72
2023/11/05 12:16:11;;;;;;;11.02;10.35;;;10.80;99.90;;;;;;5033545;28;20538;-71
2023/11/05 12:18:39;;;;;;;13.10;11.88;;;10.80;99.90;;;;;;5028176;28;20064;-72
2023/11/05 12:21:11;;;;;;;11.70;10.85;;;10.80;99.90;;;;;;5021425;28;20195;-70
2023/11/05 12:23:41;;;;;;;10.30;9.60;;;10.80;99.90;;;;;;5008072;28;20048;-74
2023/11/05 12:26:09;;;;;;;11.27;10.32;;;10.70;99.90;;;;;;5029309;28;20045;-74
2023/11/05 12:28:36;;;;;;;14.63;13.27;;;10.70;99.90;;;;;;5007932;28;20132;-73
2023/11/05 12:31:06;;;;;;;9.13;8.43;;;10.70;99.90;;;;;;5028672;28;20140;-74
2023/11/05 12:33:34;;;;;;;9.57;8.93;;;10.60;99.90;;;;;;5025665;28;20517;-72
2023/11/05 12:36:02;;;;;;;10.02;9.25;;;10.50;99.90;;;;;;5013238;28;20037;-72
2023/11/05 12:38:29;;;;;;;7.80;7.20;;;10.40;99.90;;;;;;5026221;28;20061;-72
2023/11/05 12:40:56;;;;;;;7.25;6.63;;;10.30;99.90;;;;;;5027309;28;20037;-73
2023/11/05 12:43:26;;;;;;;5.15;4.82;;;10.20;99.90;;;;;;5025588;28;20152;-72
2023/11/05 12:45:58;;;;;;;5.72;5.22;;;10.20;99.90;;;;;;5030322;28;20049;-72
2023/11/05 12:48:27;;;;;;;3.88;3.67;;;10.10;99.90;;;;;;5030163;28;20040;-72
2023/11/05 12:51:00;;;;;;;5.88;5.32;;;10.00;99.90;;;;;;5028601;28;20041;-75
2023/11/05 12:53:30;;;;;;;6.68;6.05;;;10.00;99.90;;;;;;5025865;28;20134;-72
2023/11/05 12:56:10;;;;;;;4.60;4.30;;;10.00;99.90;;;;;;5029622;28;20087;-73
2023/11/05 12:58:41;;;;;;;3.45;3.25;;;10.10;99.90;;;;;;5005216;28;20079;-72